Time;durP1;ratioP1;P1;durP2;ratioP2;P2;SDS_P1;SDS_P2;PMS_P1;PMS_P2;Temp;Humidity;BMP_temperature;BMP_pressure;BME280_temperature;BME280_humidity;BME280_pressure;Samples;Min_cycle;Max_cycle;Signal;HPM_P1;HPM_P2
2022/11/25 00:01:58;;;;;;;69.97;34.70;;;;;;;;;;5097773;28;20032;-69
2022/11/25 00:04:24;;;;;;;66.22;34.15;;;;;;;;;;5098021;28;20040;-69
2022/11/25 00:06:49;;;;;;;67.85;34.13;;;;;;;;;;5097875;28;20036;-69
2022/11/25 00:09:14;;;;;;;74.15;37.38;;;;;;;;;;5097650;28;20016;-69
2022/11/25 00:11:41;;;;;;;78.15;37.58;;;;;;;;;;5097758;28;20446;-69
2022/11/25 00:14:06;;;;;;;78.60;39.47;;;;;;;;;;5097534;28;20459;-69
2022/11/25 00:16:32;;;;;;;79.47;40.03;;;;;;;;;;5097249;28;20389;-69
2022/11/25 00:18:57;;;;;;;73.72;38.40;;;;;;;;;;5079444;28;20016;-70
2022/11/25 00:21:32;;;;;;;73.72;38.80;;;;;;;;;;5097599;28;20051;-70
2022/11/25 00:23:59;;;;;;;77.72;38.08;;;;;;;;;;5097541;28;20043;-69
2022/11/25 00:26:25;;;;;;;76.85;38.78;;;;;;;;;;5097516;28;20016;-69
2022/11/25 00:28:51;;;;;;;77.40;39.08;;;;;;;;;;5062537;28;20032;-69
2022/11/25 00:31:19;;;;;;;75.57;38.88;;;;;;;;;;5097433;28;20020;-70
2022/11/25 00:33:44;;;;;;;77.28;40.22;;;;;;;;;;5078968;28;20020;-69
2022/11/25 00:36:14;;;;;;;74.32;39.28;;;;;;;;;;5097393;28;20468;-69
2022/11/25 00:38:39;;;;;;;80.38;39.53;;;;;;;;;;5097039;28;20032;-70
2022/11/25 00:46:33;;;;;;;75.97;40.10;;;;;;;;;;5078519;28;20048;-71
2022/11/25 00:48:58;;;;;;;76.13;37.83;;;;;;;;;;5077272;28;20023;-69
2022/11/25 00:51:24;;;;;;;77.95;37.95;;;;;;;;;;5096155;28;20478;-70
2022/11/25 00:53:49;;;;;;;76.05;38.88;;;;;;;;;;5079070;28;20020;-70
2022/11/25 00:56:15;;;;;;;76.88;37.75;;;;;;;;;;5078671;28;20154;-71
2022/11/25 00:58:41;;;;;;;76.60;38.42;;;;;;;;;;5096378;28;20028;-71
2022/11/25 01:01:10;;;;;;;82.47;40.95;;;;;;;;;;5078305;28;20024;-71
2022/11/25 01:03:36;;;;;;;82.47;41.47;;;;;;;;;;5096697;28;20420;-71
2022/11/25 01:06:03;;;;;;;82.80;41.85;;;;;;;;;;5096152;28;20115;-69
2022/11/25 01:08:29;;;;;;;85.40;41.92;;;;;;;;;;5096583;28;20027;-70
2022/11/25 01:10:58;;;;;;;84.07;42.60;;;;;;;;;;5096456;28;20020;-71
2022/11/25 01:13:23;;;;;;;87.82;42.60;;;;;;;;;;5096337;28;20417;-71
2022/11/25 01:15:48;;;;;;;83.10;42.53;;;;;;;;;;5096451;28;20032;-70
2022/11/25 01:18:13;;;;;;;88.93;42.67;;;;;;;;;;5096261;28;20016;-69
2022/11/25 01:20:39;;;;;;;95.65;45.75;;;;;;;;;;5096278;28;20158;-71
2022/11/25 01:23:04;;;;;;;89.18;43.17;;;;;;;;;;5096249;28;20024;-71
2022/11/25 01:25:30;;;;;;;89.45;40.83;;;;;;;;;;5077890;28;20031;-70
2022/11/25 01:27:55;;;;;;;79.25;39.67;;;;;;;;;;5096132;28;20099;-70
2022/11/25 01:30:20;;;;;;;81.03;39.97;;;;;;;;;;5078085;28;20028;-70
2022/11/25 01:32:46;;;;;;;75.95;40.22;;;;;;;;;;5095926;28;20020;-70
2022/11/25 01:35:11;;;;;;;83.88;41.53;;;;;;;;;;5096151;28;20028;-70
2022/11/25 01:37:36;;;;;;;80.80;41.30;;;;;;;;;;5096390;28;20027;-70
2022/11/25 01:40:02;;;;;;;78.85;40.47;;;;;;;;;;5096026;28;20072;-70
2022/11/25 01:42:29;;;;;;;78.20;40.03;;;;;;;;;;5095795;28;20020;-70
2022/11/25 01:45:13;;;;;;;81.35;41.17;;;;;;;;;;5077710;28;20024;-70
2022/11/25 01:47:39;;;;;;;81.35;41.63;;;;;;;;;;5095655;28;20043;-70
2022/11/25 01:50:05;;;;;;;82.53;41.25;;;;;;;;;;5077668;28;20036;-71
2022/11/25 01:52:33;;;;;;;80.78;41.30;;;;;;;;;;5096166;28;20024;-70
2022/11/25 01:55:01;;;;;;;86.65;42.13;;;;;;;;;;5096256;28;20028;-70
2022/11/25 01:57:29;;;;;;;82.55;41.47;;;;;;;;;;5078163;28;20028;-71
2022/11/25 01:59:56;;;;;;;83.53;42.20;;;;;;;;;;5077899;28;20070;-71
2022/11/25 02:02:21;;;;;;;83.90;41.78;;;;;;;;;;5077342;28;20036;-71
2022/11/25 02:04:47;;;;;;;79.38;40.30;;;;;;;;;;5077353;28;20032;-71
2022/11/25 02:07:33;;;;;;;77.13;39.55;;;;;;;;;;5095508;28;20042;-71
2022/11/25 02:10:00;;;;;;;84.57;41.15;;;;;;;;;;5095065;28;20127;-71
2022/11/25 02:12:26;;;;;;;77.47;39.42;;;;;;;;;;5077500;28;20024;-71
2022/11/25 02:14:52;;;;;;;80.75;40.78;;;;;;;;;;5095410;28;20062;-71
2022/11/25 02:17:18;;;;;;;81.68;40.90;;;;;;;;;;5094613;28;20450;-72
2022/11/25 02:19:50;;;;;;;77.50;39.88;;;;;;;;;;5095402;28;20059;-69
2022/11/25 02:22:20;;;;;;;85.75;40.38;;;;;;;;;;5077015;28;20039;-69
2022/11/25 02:24:50;;;;;;;80.78;39.90;;;;;;;;;;5077291;28;20039;-71
2022/11/25 02:27:16;;;;;;;88.55;43.55;;;;;;;;;;5076794;28;20032;-71
2022/11/25 02:29:42;;;;;;;98.38;47.78;;;;;;;;;;5095053;28;20020;-70
2022/11/25 02:32:07;;;;;;;96.28;48.40;;;;;;;;;;5076842;28;20093;-70
2022/11/25 02:34:33;;;;;;;106.80;50.55;;;;;;;;;;5076945;28;20405;-71
2022/11/25 02:36:58;;;;;;;94.80;49.38;;;;;;;;;;5077264;28;20028;-71
2022/11/25 02:39:24;;;;;;;95.90;44.80;;;;;;;;;;5076673;28;20024;-71
2022/11/25 02:41:51;;;;;;;88.90;44.92;;;;;;;;;;5076295;28;20031;-70
2022/11/25 02:44:17;;;;;;;84.15;41.83;;;;;;;;;;5094916;28;20012;-70
2022/11/25 02:46:42;;;;;;;82.60;41.10;;;;;;;;;;5059848;28;20489;-70
2022/11/25 02:49:08;;;;;;;82.28;41.60;;;;;;;;;;5094860;28;20052;-70
2022/11/25 02:51:33;;;;;;;78.88;41.05;;;;;;;;;;5076571;28;20033;-71
2022/11/25 02:54:00;;;;;;;83.10;40.75;;;;;;;;;;5095042;28;20031;-70
2022/11/25 02:56:31;;;;;;;76.45;40.83;;;;;;;;;;5094650;28;20386;-71
2022/11/25 02:58:57;;;;;;;83.78;41.13;;;;;;;;;;5072034;28;20062;-71
2022/11/25 03:01:25;;;;;;;79.38;40.85;;;;;;;;;;5056512;28;20029;-71
2022/11/25 03:03:50;;;;;;;79.60;40.83;;;;;;;;;;5056705;28;20044;-71
2022/11/25 03:06:15;;;;;;;80.05;40.28;;;;;;;;;;5073997;28;20020;-70
2022/11/25 03:08:42;;;;;;;82.80;41.75;;;;;;;;;;5056638;28;20544;-71
2022/11/25 03:11:10;;;;;;;81.80;40.53;;;;;;;;;;5056446;28;20017;-70
2022/11/25 03:13:36;;;;;;;79.93;41.05;;;;;;;;;;5056521;28;20025;-69
2022/11/25 03:16:02;;;;;;;83.63;41.70;;;;;;;;;;5074364;28;20099;-69
2022/11/25 03:18:27;;;;;;;78.45;41.17;;;;;;;;;;5056138;28;20036;-70
2022/11/25 03:20:53;;;;;;;77.60;40.35;;;;;;;;;;5073986;28;20027;-69
2022/11/25 03:23:20;;;;;;;84.63;41.80;;;;;;;;;;5056100;28;20482;-69
2022/11/25 03:25:46;;;;;;;82.32;41.97;;;;;;;;;;5056486;28;20035;-69
2022/11/25 03:28:11;;;;;;;81.55;42.00;;;;;;;;;;5073858;28;20029;-71
2022/11/25 03:30:37;;;;;;;82.70;42.72;;;;;;;;;;5056051;28;20016;-71
2022/11/25 03:33:03;;;;;;;81.63;41.78;;;;;;;;;;5056003;28;20028;-71
2022/11/25 03:35:28;;;;;;;80.47;40.55;;;;;;;;;;5056300;28;20021;-71
2022/11/25 03:37:54;;;;;;;76.38;40.17;;;;;;;;;;5055858;28;20047;-71
2022/11/25 03:40:19;;;;;;;76.03;40.10;;;;;;;;;;5056248;28;20021;-71
2022/11/25 03:42:45;;;;;;;71.28;38.67;;;;;;;;;;5056051;28;20123;-70
2022/11/25 03:45:14;;;;;;;70.47;37.33;;;;;;;;;;5055888;28;20087;-71
2022/11/25 03:47:40;;;;;;;73.72;39.03;;;;;;;;;;5056013;28;20474;-70
2022/11/25 03:50:08;;;;;;;74.32;38.70;;;;;;;;;;5055472;28;20120;-71
2022/11/25 03:52:35;;;;;;;71.15;38.55;;;;;;;;;;5055628;28;20028;-70
2022/11/25 03:55:00;;;;;;;72.72;36.72;;;;;;;;;;5074094;28;20455;-70
2022/11/25 03:57:29;;;;;;;69.57;36.70;;;;;;;;;;5055851;28;20401;-70
2022/11/25 03:59:55;;;;;;;65.75;35.17;;;;;;;;;;5055879;28;20119;-70
2022/11/25 04:02:20;;;;;;;71.97;38.70;;;;;;;;;;5055953;28;20475;-70
2022/11/25 04:04:47;;;;;;;67.78;36.88;;;;;;;;;;5055803;28;20020;-71
2022/11/25 04:07:15;;;;;;;63.22;36.60;;;;;;;;;;5055824;28;20056;-70
2022/11/25 04:09:41;;;;;;;65.32;35.38;;;;;;;;;;5055463;28;20009;-71
2022/11/25 04:14:57;;;;;;;69.18;35.70;;;;;;;;;;5055742;28;20032;-71
2022/11/25 04:17:22;;;;;;;63.72;34.95;;;;;;;;;;5055601;28;20034;-70
2022/11/25 04:19:50;;;;;;;65.00;35.08;;;;;;;;;;5089049;23;20072;-69
2022/11/25 04:22:16;;;;;;;62.03;35.65;;;;;;;;;;5075173;28;20035;-69
2022/11/25 04:24:43;;;;;;;63.55;35.83;;;;;;;;;;5092166;28;20376;-69
2022/11/25 04:27:12;;;;;;;66.07;36.78;;;;;;;;;;5092305;28;20111;-69
2022/11/25 04:29:38;;;;;;;66.45;36.92;;;;;;;;;;5094048;28;20142;-69
2022/11/25 04:32:03;;;;;;;67.10;36.65;;;;;;;;;;5092628;28;20032;-69
2022/11/25 04:34:29;;;;;;;66.72;37.33;;;;;;;;;;5093604;28;20032;-69
2022/11/25 04:36:56;;;;;;;67.22;36.70;;;;;;;;;;5091909;28;20024;-69
2022/11/25 04:39:21;;;;;;;67.35;38.33;;;;;;;;;;5092899;28;20042;-69
2022/11/25 04:41:49;;;;;;;71.68;37.15;;;;;;;;;;5095896;28;20032;-69
2022/11/25 04:44:14;;;;;;;64.93;35.70;;;;;;;;;;5095754;28;20022;-69
2022/11/25 04:46:41;;;;;;;65.72;37.17;;;;;;;;;;5095726;28;20055;-69
2022/11/25 04:49:07;;;;;;;65.80;37.47;;;;;;;;;;5096082;28;20103;-69
2022/11/25 04:51:32;;;;;;;65.30;36.20;;;;;;;;;;5096041;28;20494;-70
2022/11/25 04:54:02;;;;;;;61.58;37.45;;;;;;;;;;5095406;28;20040;-69
2022/11/25 04:56:29;;;;;;;95.00;46.70;;;;;;;;;;5095915;28;20064;-70
2022/11/25 05:01:43;;;;;;;66.10;36.50;;;;;;;;;;5095361;28;20032;-69
2022/11/25 05:04:34;;;;;;;66.03;36.25;;;;;;;;;;5094626;28;20131;-69
2022/11/25 05:07:00;;;;;;;66.55;36.33;;;;;;;;;;5095322;28;20107;-69
2022/11/25 05:09:26;;;;;;;61.92;35.50;;;;;;;;;;5095544;28;20024;-69
2022/11/25 05:12:07;;;;;;;66.72;36.08;;;;;;;;;;5095676;28;20024;-69
2022/11/25 05:14:34;;;;;;;63.25;35.25;;;;;;;;;;5094969;28;20023;-69
2022/11/25 05:17:01;;;;;;;62.90;35.75;;;;;;;;;;5094700;28;20024;-68
2022/11/25 05:19:26;;;;;;;63.17;35.17;;;;;;;;;;5094400;28;20501;-69
2022/11/25 05:21:52;;;;;;;60.28;34.78;;;;;;;;;;5094986;28;20028;-70
2022/11/25 05:24:17;;;;;;;61.95;34.35;;;;;;;;;;5098441;28;20019;-69
2022/11/25 05:26:44;;;;;;;66.35;37.55;;;;;;;;;;5081178;28;20035;-69
2022/11/25 05:29:10;;;;;;;63.70;36.92;;;;;;;;;;5097417;28;20114;-70
2022/11/25 05:31:35;;;;;;;70.95;38.60;;;;;;;;;;5098243;28;20102;-69
2022/11/25 05:34:03;;;;;;;65.82;36.92;;;;;;;;;;5081188;28;20064;-69
2022/11/25 05:36:29;;;;;;;66.72;37.83;;;;;;;;;;5098156;28;20114;-69
2022/11/25 05:38:55;;;;;;;69.20;37.95;;;;;;;;;;5098109;28;20069;-70
2022/11/25 05:41:37;;;;;;;65.88;37.58;;;;;;;;;;5083193;28;20542;-71
2022/11/25 05:44:04;;;;;;;77.53;42.65;;;;;;;;;;5116305;28;20114;-71
2022/11/25 05:46:29;;;;;;;77.72;44.17;;;;;;;;;;5080918;28;20019;-71
2022/11/25 05:48:56;;;;;;;86.72;46.08;;;;;;;;;;5115999;28;20380;-71
2022/11/25 05:51:22;;;;;;;85.47;46.92;;;;;;;;;;5080410;28;20011;-71
2022/11/25 05:53:48;;;;;;;84.05;46.50;;;;;;;;;;5096786;28;20504;-71
2022/11/25 05:56:14;;;;;;;85.18;45.25;;;;;;;;;;5097093;28;20027;-74
2022/11/25 05:59:12;;;;;;;80.97;45.22;;;;;;;;;;5093312;28;20039;-70
2022/11/25 06:01:44;;;;;;;84.63;46.78;;;;;;;;;;5097451;28;20538;-74
2022/11/25 06:04:10;;;;;;;88.53;49.35;;;;;;;;;;5097070;28;20054;-70
2022/11/25 06:06:35;;;;;;;93.20;49.65;;;;;;;;;;5079732;28;20373;-72
2022/11/25 06:09:01;;;;;;;93.20;50.28;;;;;;;;;;5097356;28;20032;-68
2022/11/25 06:11:28;;;;;;;84.00;46.17;;;;;;;;;;5097249;28;20023;-71
2022/11/25 06:13:56;;;;;;;69.32;39.47;;;;;;;;;;5097276;28;20035;-71
2022/11/25 06:16:21;;;;;;;73.20;41.58;;;;;;;;;;5115672;28;20027;-71
2022/11/25 06:18:51;;;;;;;;;;;;;;;;;;5097611;28;20043;-70
2022/11/25 06:21:17;;;;;;;72.53;40.08;;;;;;;;;;5097452;28;19908;-72
2022/11/25 06:23:46;;;;;;;72.05;39.33;;;;;;;;;;5096652;28;20051;-71
2022/11/25 06:26:15;;;;;;;75.47;40.67;;;;;;;;;;5080590;28;20089;-71
2022/11/25 06:28:41;;;;;;;77.13;41.65;;;;;;;;;;5096994;28;20404;-71
2022/11/25 06:31:11;;;;;;;73.38;39.97;;;;;;;;;;5096317;28;20007;-70
2022/11/25 06:33:45;;;;;;;90.13;48.58;;;;;;;;;;5097103;28;20072;-71
2022/11/25 06:36:15;;;;;;;93.25;51.33;;;;;;;;;;5096585;28;20024;-70
2022/11/25 06:38:42;;;;;;;96.53;51.90;;;;;;;;;;5115351;28;20481;-71
2022/11/25 06:41:08;;;;;;;91.47;49.75;;;;;;;;;;5115179;28;20031;-71
2022/11/25 06:43:33;;;;;;;96.70;50.83;;;;;;;;;;5097039;28;20028;-71
2022/11/25 06:46:06;;;;;;;94.32;50.05;;;;;;;;;;5096844;28;20412;-71
2022/11/25 06:48:31;;;;;;;87.75;47.33;;;;;;;;;;5115341;28;20070;-71
2022/11/25 06:50:59;;;;;;;91.35;48.22;;;;;;;;;;5114626;28;20070;-71
2022/11/25 06:53:25;;;;;;;87.72;48.92;;;;;;;;;;5113518;28;20097;-71
2022/11/25 06:56:10;;;;;;;98.88;51.42;;;;;;;;;;5113693;28;20024;-71
2022/11/25 06:58:36;;;;;;;86.45;47.38;;;;;;;;;;5112501;28;20027;-70
2022/11/25 07:01:06;;;;;;;84.63;46.67;;;;;;;;;;5094115;28;20016;-72
2022/11/25 07:03:31;;;;;;;90.03;47.23;;;;;;;;;;5111806;28;20529;-72
2022/11/25 07:05:57;;;;;;;89.65;46.90;;;;;;;;;;5111964;28;20257;-72
2022/11/25 07:08:23;;;;;;;92.82;47.45;;;;;;;;;;5112060;28;20079;-70
2022/11/25 07:10:49;;;;;;;97.20;48.05;;;;;;;;;;5111652;28;20040;-71
2022/11/25 07:13:14;;;;;;;96.82;50.13;;;;;;;;;;5111825;28;20019;-71
2022/11/25 07:15:39;;;;;;;92.15;47.42;;;;;;;;;;5111793;28;20453;-71
2022/11/25 07:18:05;;;;;;;94.68;47.30;;;;;;;;;;5094074;28;20460;-71
2022/11/25 07:20:31;;;;;;;94.53;48.35;;;;;;;;;;5094108;28;20101;-70
2022/11/25 07:22:57;;;;;;;93.82;46.20;;;;;;;;;;5094353;28;20036;-70
2022/11/25 07:25:22;;;;;;;90.93;47.65;;;;;;;;;;5094994;28;20016;-71
2022/11/25 07:27:48;;;;;;;90.05;47.85;;;;;;;;;;5078188;28;20035;-71
2022/11/25 07:30:14;;;;;;;90.78;49.97;;;;;;;;;;5095144;28;20020;-71
2022/11/25 07:32:40;;;;;;;92.30;49.75;;;;;;;;;;5113185;28;20032;-71
2022/11/25 07:35:05;;;;;;;90.28;47.90;;;;;;;;;;5113218;28;20022;-71
2022/11/25 07:37:31;;;;;;;85.20;45.67;;;;;;;;;;5112917;28;20473;-71
2022/11/25 07:39:56;;;;;;;83.75;45.10;;;;;;;;;;5112912;28;20031;-71
2022/11/25 07:42:21;;;;;;;82.95;46.42;;;;;;;;;;5113050;28;20039;-70
2022/11/25 07:44:48;;;;;;;83.82;46.17;;;;;;;;;;5094898;28;20465;-71
2022/11/25 07:47:33;;;;;;;85.05;46.33;;;;;;;;;;5113030;28;20034;-70
2022/11/25 07:49:58;;;;;;;77.90;43.88;;;;;;;;;;5113084;28;20461;-70
2022/11/25 07:52:24;;;;;;;90.93;47.47;;;;;;;;;;5112846;28;20093;-70
2022/11/25 07:54:49;;;;;;;103.45;50.20;;;;;;;;;;5094710;28;20071;-71
2022/11/25 07:57:14;;;;;;;100.32;50.50;;;;;;;;;;5093887;28;20030;-71
2022/11/25 07:59:40;;;;;;;109.30;50.65;;;;;;;;;;5094665;28;20086;-70
2022/11/25 08:02:07;;;;;;;103.15;47.65;;;;;;;;;;5112996;28;20016;-71
2022/11/25 08:04:33;;;;;;;85.55;44.25;;;;;;;;;;5112816;28;20392;-71
2022/11/25 08:06:58;;;;;;;91.07;45.20;;;;;;;;;;5112764;28;20031;-70
2022/11/25 08:09:24;;;;;;;91.38;45.22;;;;;;;;;;5112943;28;20377;-71
2022/11/25 08:11:49;;;;;;;92.63;44.88;;;;;;;;;;5112847;28;20015;-70
2022/11/25 08:14:15;;;;;;;93.65;45.40;;;;;;;;;;5113029;28;20073;-69
2022/11/25 08:16:40;;;;;;;93.15;46.17;;;;;;;;;;5117024;28;20508;-70
2022/11/25 08:19:07;;;;;;;93.30;48.25;;;;;;;;;;5109036;28;20048;-70
2022/11/25 08:21:32;;;;;;;96.82;50.50;;;;;;;;;;5095350;28;20393;-71
2022/11/25 08:23:58;;;;;;;96.93;50.22;;;;;;;;;;5096581;28;20028;-71
2022/11/25 08:26:32;;;;;;;93.93;49.95;;;;;;;;;;5096677;28;20016;-70
2022/11/25 08:28:58;;;;;;;93.25;48.30;;;;;;;;;;5096384;28;20098;-70
2022/11/25 08:31:29;;;;;;;93.22;48.90;;;;;;;;;;5095069;28;20012;-71
2022/11/25 08:33:55;;;;;;;88.22;46.92;;;;;;;;;;5096185;28;20028;-72
2022/11/25 08:36:21;;;;;;;100.15;49.17;;;;;;;;;;5096005;28;20035;-69
2022/11/25 08:38:48;;;;;;;108.03;51.83;;;;;;;;;;5095488;28;20032;-67
2022/11/25 08:41:39;;;;;;;102.20;50.22;;;;;;;;;;5096138;28;20016;-67
2022/11/25 08:44:06;;;;;;;95.47;47.65;;;;;;;;;;5089218;28;20054;-67
2022/11/25 08:46:35;;;;;;;95.95;47.38;;;;;;;;;;5095666;28;20038;-68
2022/11/25 08:49:01;;;;;;;92.35;46.75;;;;;;;;;;5094274;28;20020;-68
2022/11/25 08:51:28;;;;;;;100.38;47.65;;;;;;;;;;5095611;28;20465;-68
2022/11/25 08:53:54;;;;;;;111.03;53.10;;;;;;;;;;5095696;28;20029;-68
2022/11/25 08:56:20;;;;;;;108.25;54.72;;;;;;;;;;5095492;28;20162;-69
2022/11/25 08:58:47;;;;;;;125.28;64.75;;;;;;;;;;5095184;28;20020;-70
2022/11/25 09:01:12;;;;;;;117.65;58.80;;;;;;;;;;5095017;28;20428;-69
2022/11/25 09:03:39;;;;;;;134.90;67.63;;;;;;;;;;5095185;28;20028;-69
2022/11/25 09:06:06;;;;;;;133.23;69.97;;;;;;;;;;5095023;28;20107;-69
2022/11/25 09:08:31;;;;;;;130.25;66.72;;;;;;;;;;5095314;28;20028;-70
2022/11/25 09:10:57;;;;;;;139.50;71.47;;;;;;;;;;5094965;28;20488;-70
2022/11/25 09:13:22;;;;;;;147.50;71.85;;;;;;;;;;5093988;28;20032;-69
2022/11/25 09:15:48;;;;;;;151.30;73.03;;;;;;;;;;5095234;28;20472;-69
2022/11/25 09:18:14;;;;;;;142.55;71.82;;;;;;;;;;5095283;28;20020;-69
2022/11/25 09:20:40;;;;;;;140.77;69.85;;;;;;;;;;5095087;28;20031;-70
2022/11/25 09:23:06;;;;;;;128.25;65.85;;;;;;;;;;5095353;28;20368;-70
2022/11/25 09:25:32;;;;;;;129.23;63.17;;;;;;;;;;5094621;28;20021;-69
2022/11/25 09:27:57;;;;;;;106.75;56.90;;;;;;;;;;5095050;28;20077;-69
2022/11/25 09:30:23;;;;;;;119.57;57.67;;;;;;;;;;5095958;28;20105;-69
2022/11/25 09:32:49;;;;;;;136.70;72.93;;;;;;;;;;5094895;28;20035;-69
2022/11/25 09:35:15;;;;;;;138.00;76.95;;;;;;;;;;5094229;28;20028;-70
2022/11/25 09:37:40;;;;;;;127.13;68.97;;;;;;;;;;5093739;28;20158;-69
2022/11/25 09:40:06;;;;;;;127.18;64.00;;;;;;;;;;5094842;28;20123;-69
2022/11/25 09:48:49;;;;;;;105.88;55.25;;;;;;;;;;5092903;28;20028;-69
2022/11/25 09:51:20;;;;;;;117.35;57.70;;;;;;;;;;5094000;28;20024;-69
2022/11/25 09:53:45;;;;;;;;;;;;;;;;;;5093807;28;20119;-69
2022/11/25 09:56:16;;;;;;;139.43;68.23;;;;;;;;;;5094418;28;19958;-69
2022/11/25 09:58:46;;;;;;;138.95;69.40;;;;;;;;;;5093160;28;20273;-69
2022/11/25 10:01:21;;;;;;;134.60;66.57;;;;;;;;;;5076320;28;20020;-69
2022/11/25 10:03:49;;;;;;;131.82;65.18;;;;;;;;;;5094277;28;20036;-69
2022/11/25 10:06:20;;;;;;;129.88;65.25;;;;;;;;;;5093873;28;20034;-69
2022/11/25 10:08:47;;;;;;;128.85;62.80;;;;;;;;;;5093931;28;20028;-69
2022/11/25 10:11:24;;;;;;;134.70;66.53;;;;;;;;;;5094079;28;20067;-69
2022/11/25 10:13:55;;;;;;;132.27;68.28;;;;;;;;;;5094130;28;20028;-69
2022/11/25 10:16:30;;;;;;;131.32;67.10;;;;;;;;;;5092803;28;20040;-70
2022/11/25 10:19:00;;;;;;;129.32;65.15;;;;;;;;;;5093840;28;20127;-69
2022/11/25 10:21:26;;;;;;;138.88;66.35;;;;;;;;;;5093719;28;20485;-68
2022/11/25 10:23:51;;;;;;;133.68;63.75;;;;;;;;;;5091951;28;20032;-70
2022/11/25 10:26:20;;;;;;;104.63;54.30;;;;;;;;;;5093534;28;20028;-71
2022/11/25 10:28:50;;;;;;;118.78;59.92;;;;;;;;;;5093682;28;20027;-69
2022/11/25 10:31:18;;;;;;;121.40;60.95;;;;;;;;;;5092593;28;20454;-68
2022/11/25 10:33:47;;;;;;;120.35;61.15;;;;;;;;;;5093719;28;20213;-70
2022/11/25 10:36:12;;;;;;;125.10;61.17;;;;;;;;;;5094005;28;20466;-68
2022/11/25 10:38:40;;;;;;;117.60;59.67;;;;;;;;;;5092506;28;20031;-70
2022/11/25 10:41:06;;;;;;;119.97;61.92;;;;;;;;;;5092406;28;20484;-70
2022/11/25 10:43:31;;;;;;;120.65;60.13;;;;;;;;;;5093323;28;20032;-69
2022/11/25 10:45:57;;;;;;;134.45;69.10;;;;;;;;;;5093167;28;20032;-70
2022/11/25 10:48:37;;;;;;;142.63;76.93;;;;;;;;;;5092153;28;20424;-69
2022/11/25 10:51:11;;;;;;;183.05;93.78;;;;;;;;;;5093371;28;20385;-69
2022/11/25 10:53:37;;;;;;;140.13;74.15;;;;;;;;;;5093577;28;20458;-70
2022/11/25 10:56:03;;;;;;;135.73;70.05;;;;;;;;;;5092802;28;20022;-70
2022/11/25 10:58:29;;;;;;;125.75;64.57;;;;;;;;;;5093103;28;20026;-70
2022/11/25 11:01:05;;;;;;;126.25;62.28;;;;;;;;;;5091699;28;20008;-70
2022/11/25 11:03:31;;;;;;;129.32;62.10;;;;;;;;;;5093152;28;20028;-69
2022/11/25 11:05:57;;;;;;;120.28;61.17;;;;;;;;;;5093064;28;20020;-69
2022/11/25 11:08:24;;;;;;;125.30;63.28;;;;;;;;;;5092637;28;20419;-70
2022/11/25 11:11:19;;;;;;;120.72;60.17;;;;;;;;;;5093018;28;20103;-70
2022/11/25 11:13:45;;;;;;;115.30;59.00;;;;;;;;;;5071102;28;20047;-69
2022/11/25 11:16:22;;;;;;;118.50;60.40;;;;;;;;;;5091832;28;20016;-69
2022/11/25 11:18:49;;;;;;;124.95;64.60;;;;;;;;;;5092849;28;20090;-69
2022/11/25 11:21:29;;;;;;;124.70;68.03;;;;;;;;;;5092971;28;20035;-69
2022/11/25 11:23:55;;;;;;;151.68;80.00;;;;;;;;;;5093202;28;20016;-69
2022/11/25 11:26:32;;;;;;;147.75;75.78;;;;;;;;;;5091369;28;20023;-70
2022/11/25 11:28:58;;;;;;;148.18;79.88;;;;;;;;;;5092439;28;20458;-70
2022/11/25 11:31:38;;;;;;;137.10;70.70;;;;;;;;;;5093932;28;20020;-69
2022/11/25 11:34:17;;;;;;;144.50;74.47;;;;;;;;;;5093894;28;20036;-70
2022/11/25 11:36:45;;;;;;;141.55;76.80;;;;;;;;;;5093681;28;20036;-69
2022/11/25 11:39:29;;;;;;;147.52;81.32;;;;;;;;;;5093512;28;20024;-70
2022/11/25 11:42:12;;;;;;;154.13;83.93;;;;;;;;;;5093491;28;20032;-70
2022/11/25 11:44:38;;;;;;;156.95;84.15;;;;;;;;;;5093385;28;20028;-70
2022/11/25 11:47:21;;;;;;;158.23;86.72;;;;;;;;;;5092430;28;20036;-70
2022/11/25 11:49:59;;;;;;;164.82;88.35;;;;;;;;;;5099155;28;20028;-70
2022/11/25 11:52:37;;;;;;;155.25;87.95;;;;;;;;;;5100191;28;20377;-70
2022/11/25 11:55:25;;;;;;;149.50;82.53;;;;;;;;;;5100237;28;20030;-70
2022/11/25 11:58:10;;;;;;;137.32;71.35;;;;;;;;;;5100416;28;20485;-70
2022/11/25 12:00:41;;;;;;;140.75;72.90;;;;;;;;;;5082236;28;20085;-70
2022/11/25 12:03:06;;;;;;;;;;;;;;;;;;5100817;28;20081;-69
2022/11/25 12:05:36;;;;;;;124.80;61.50;;;;;;;;;;5099742;28;20371;-69
2022/11/25 12:08:07;;;;;;;121.45;64.65;;;;;;;;;;5100380;28;20773;-70
2022/11/25 12:10:42;;;;;;;126.90;62.90;;;;;;;;;;5100512;28;20024;-70
2022/11/25 12:13:18;;;;;;;114.63;59.95;;;;;;;;;;5098911;28;20480;-69
2022/11/25 12:15:53;;;;;;;118.85;61.72;;;;;;;;;;5098902;28;20389;-70
2022/11/25 12:18:22;;;;;;;116.40;62.10;;;;;;;;;;5098967;28;20020;-69
2022/11/25 12:20:50;;;;;;;114.63;59.40;;;;;;;;;;5100303;28;20044;-69
2022/11/25 12:23:26;;;;;;;114.32;57.95;;;;;;;;;;5098910;28;20028;-69
2022/11/25 12:25:55;;;;;;;133.85;67.97;;;;;;;;;;5098753;28;20452;-68
2022/11/25 12:28:25;;;;;;;148.88;72.95;;;;;;;;;;5099014;28;20350;-68
2022/11/25 12:30:50;;;;;;;153.18;73.57;;;;;;;;;;5081934;28;20028;-68
2022/11/25 12:33:20;;;;;;;154.48;87.07;;;;;;;;;;5100030;28;20020;-67
2022/11/25 12:35:54;;;;;;;157.35;83.97;;;;;;;;;;5099742;28;20035;-68
2022/11/25 12:38:44;;;;;;;219.30;114.93;;;;;;;;;;5100130;28;20020;-69
2022/11/25 12:41:24;;;;;;;196.40;104.65;;;;;;;;;;5099423;28;20071;-69
2022/11/25 12:43:50;;;;;;;;;;;;;;;;;;5100176;28;20035;-68
2022/11/25 12:46:24;;;;;;;143.43;74.27;;;;;;;;;;5099600;28;19908;-68
2022/11/25 12:48:51;;;;;;;147.32;78.50;;;;;;;;;;5098517;28;20278;-68
2022/11/25 12:51:35;;;;;;;158.27;88.80;;;;;;;;;;5099683;28;20026;-68
2022/11/25 12:54:18;;;;;;;178.85;98.75;;;;;;;;;;5099836;28;20031;-68
2022/11/25 12:56:59;;;;;;;138.30;80.38;;;;;;;;;;5098104;28;20046;-68
2022/11/25 12:59:28;;;;;;;140.45;77.40;;;;;;;;;;5098303;28;20082;-69
2022/11/25 13:01:53;;;;;;;152.30;83.72;;;;;;;;;;5095743;28;20031;-69
2022/11/25 13:04:34;;;;;;;119.03;63.42;;;;;;;;;;5096564;28;20036;-68
2022/11/25 13:07:19;;;;;;;163.27;86.15;;;;;;;;;;5095413;28;20024;-67
2022/11/25 13:09:45;;;;;;;151.55;82.43;;;;;;;;;;5077011;28;20114;-69
2022/11/25 13:12:11;;;;;;;180.82;91.65;;;;;;;;;;5095419;28;20094;-70
2022/11/25 13:14:55;;;;;;;144.32;80.50;;;;;;;;;;5077146;28;20020;-69
2022/11/25 13:17:21;;;;;;;143.27;78.25;;;;;;;;;;5095197;28;20034;-69
2022/11/25 13:19:46;;;;;;;159.68;81.22;;;;;;;;;;5095007;28;20122;-69
2022/11/25 13:22:28;;;;;;;139.90;73.47;;;;;;;;;;5094929;28;20115;-69
2022/11/25 13:24:55;;;;;;;130.77;67.70;;;;;;;;;;5094949;28;20028;-70
2022/11/25 13:27:31;;;;;;;145.77;74.07;;;;;;;;;;5094060;28;20551;-69
2022/11/25 13:29:56;;;;;;;186.02;98.50;;;;;;;;;;5095027;28;20520;-69
2022/11/25 13:32:32;;;;;;;190.82;93.18;;;;;;;;;;5096007;28;20058;-69
2022/11/25 13:35:16;;;;;;;129.25;66.45;;;;;;;;;;5095927;28;20453;-69
2022/11/25 13:37:42;;;;;;;497.48;285.63;;;;;;;;;;5095420;28;20147;-70
2022/11/25 13:40:22;;;;;;;368.30;193.77;;;;;;;;;;5095678;28;20095;-70
2022/11/25 13:42:51;;;;;;;347.13;177.63;;;;;;;;;;5095808;28;20048;-69
2022/11/25 13:45:36;;;;;;;277.63;136.52;;;;;;;;;;5094588;28;20435;-69
2022/11/25 13:48:11;;;;;;;309.60;154.80;;;;;;;;;;5095618;28;20028;-69
2022/11/25 13:50:36;;;;;;;182.30;97.35;;;;;;;;;;5095447;28;20039;-70
2022/11/25 13:53:03;;;;;;;201.20;98.38;;;;;;;;;;5094231;28;20020;-69
2022/11/25 13:55:31;;;;;;;260.33;143.45;;;;;;;;;;5095550;28;20020;-70
2022/11/25 13:58:06;;;;;;;129.00;79.10;;;;;;;;;;5093502;28;20024;-70
2022/11/25 14:00:31;;;;;;;98.65;57.08;;;;;;;;;;5094099;28;20064;-70
2022/11/25 14:03:16;;;;;;;105.32;54.65;;;;;;;;;;5094321;28;20081;-73
2022/11/25 14:05:42;;;;;;;97.32;50.72;;;;;;;;;;5093700;28;20432;-74
2022/11/25 14:08:14;;;;;;;125.25;67.63;;;;;;;;;;5095398;28;20024;-74
2022/11/25 14:10:56;;;;;;;107.85;60.25;;;;;;;;;;5094877;28;20028;-73
2022/11/25 14:13:44;;;;;;;109.43;58.55;;;;;;;;;;5093761;28;20074;-73
2022/11/25 14:16:32;;;;;;;112.15;59.30;;;;;;;;;;5093039;28;20111;-73
2022/11/25 14:18:57;;;;;;;115.40;60.17;;;;;;;;;;5092867;28;20044;-73
2022/11/25 14:21:42;;;;;;;118.68;58.15;;;;;;;;;;5093370;28;20039;-73
2022/11/25 14:24:10;;;;;;;96.25;50.67;;;;;;;;;;5093054;28;20122;-73
2022/11/25 14:26:39;;;;;;;90.90;49.88;;;;;;;;;;5094835;28;20028;-73
2022/11/25 14:29:12;;;;;;;97.25;50.72;;;;;;;;;;5094822;28;20032;-73
2022/11/25 14:31:40;;;;;;;92.35;49.00;;;;;;;;;;5093619;28;20499;-73
2022/11/25 14:34:14;;;;;;;97.35;50.05;;;;;;;;;;5094611;28;20095;-73
2022/11/25 14:36:42;;;;;;;92.00;49.08;;;;;;;;;;5094889;28;20028;-73
2022/11/25 14:39:10;;;;;;;94.00;51.15;;;;;;;;;;5093139;28;20393;-70
2022/11/25 14:41:56;;;;;;;94.72;52.90;;;;;;;;;;5094629;28;20082;-69